Airfield :
LOGIN :

Register | Disclaimer

   EN    FR    IT 

 










Legend :    VFR   Marginal VFR   IFR   Intensive IFR   Very Intensive IFR
Visi :
Ceiling :
>= 8 km
>= 3000ft
5 to 8 km
1000 to 3000 ft
1500m to 5 km
500 to 1000 ft
800 to 1500m
200 to 500 ft
< 800m
< 200 ft
Symbols :   Thunderstorms  Fog  Heavy snow  Heavy precipitations  Wind > 20 kt
SIGMETs :     Misc.  Thunderstorms  Icing  Turbulence  Mountain Waves  Volcanic Ashes






- Airport Elevation : 325 ft
- IATA code : POX


LFPT - Pontoise

CURRENT METAR :
  • 241430Z AUTO 19009KT 9999 FEW038/// BKN056/// BKN068/// ///CB 16/12 Q0999

EXPIRED METARs :
  • 241400Z AUTO 21009KT 9999 FEW024/// SCT078/// ///TCU 16/13 Q1000
  • 241330Z AUTO 21010KT 180V240 9999 FEW026/// BKN074/// BKN086/// ///TCU 16/12 Q1001
  • 241300Z AUTO 21010KT 190V250 9999 FEW015 SCT160 16/13 Q1001
  • 241230Z AUTO 22011KT 9999 FEW017/// SCT045/// ///TCU 15/14 Q1002
  • 241200Z AUTO 24015KT 2500 0900 R05/1400D +RA BCFG BKN022/// BKN029/// OVC039/// ///CB 13/11 Q1002
  • 241130Z AUTO 21018KT 9999 OVC028/// ///CB 16/11 Q1002

TAF N/A
ATIS : +33 1 30 30 52 08



MET'MAP, your aeronautical weather chart ! - Copyright ORBIFLY December 2007 - Disclaimer

ORBIFLY MET'MAP TEAM :

Programming & Development : Alexandra Zaïnal
Concept & original design : Baudouin d'Aumeries
Assistance for programming : Marc-Olivier Méhu
Technical & hardware support : Manuel Goepfert

Contact : metmap@orbifly.com




SOURCES & CREDITS :

   NOAA